sensor_id;sensor_type;location;lat;lon;timestamp;P1;durP1;ratioP1;P2;durP2;ratioP2
22289;SDS011;11313;50.116;8.424;2023-05-07T00:01:12;7.43;;;2.70;;
22289;SDS011;11313;50.116;8.424;2023-05-07T00:03:38;8.80;;;2.78;;
22289;SDS011;11313;50.116;8.424;2023-05-07T00:06:04;8.40;;;2.58;;
22289;SDS011;11313;50.116;8.424;2023-05-07T00:08:30;5.13;;;2.03;;
22289;SDS011;11313;50.116;8.424;2023-05-07T00:10:55;6.82;;;2.13;;
22289;SDS011;11313;50.116;8.424;2023-05-07T00:13:21;7.03;;;2.20;;
22289;SDS011;11313;50.116;8.424;2023-05-07T00:15:46;8.23;;;2.05;;
22289;SDS011;11313;50.116;8.424;2023-05-07T00:18:12;5.78;;;2.47;;
22289;SDS011;11313;50.116;8.424;2023-05-07T00:20:37;8.07;;;1.95;;
22289;SDS011;11313;50.116;8.424;2023-05-07T00:23:03;6.10;;;2.13;;
22289;SDS011;11313;50.116;8.424;2023-05-07T00:25:28;4.65;;;2.20;;
22289;SDS011;11313;50.116;8.424;2023-05-07T00:27:54;6.07;;;2.00;;
22289;SDS011;11313;50.116;8.424;2023-05-07T00:30:19;3.22;;;2.25;;
22289;SDS011;11313;50.116;8.424;2023-05-07T00:32:45;5.70;;;1.70;;
22289;SDS011;11313;50.116;8.424;2023-05-07T00:35:11;3.67;;;2.10;;
22289;SDS011;11313;50.116;8.424;2023-05-07T00:37:36;4.35;;;2.00;;
22289;SDS011;11313;50.116;8.424;2023-05-07T00:40:02;2.35;;;1.83;;
22289;SDS011;11313;50.116;8.424;2023-05-07T00:42:29;5.15;;;1.88;;
22289;SDS011;11313;50.116;8.424;2023-05-07T00:44:57;6.68;;;2.05;;
22289;SDS011;11313;50.116;8.424;2023-05-07T00:47:23;4.95;;;2.22;;
22289;SDS011;11313;50.116;8.424;2023-05-07T00:49:49;4.88;;;2.40;;
22289;SDS011;11313;50.116;8.424;2023-05-07T00:52:16;4.10;;;2.47;;
22289;SDS011;11313;50.116;8.424;2023-05-07T00:54:42;4.70;;;2.47;;
22289;SDS011;11313;50.116;8.424;2023-05-07T00:57:09;3.63;;;2.35;;
22289;SDS011;11313;50.116;8.424;2023-05-07T00:59:36;6.88;;;2.30;;
22289;SDS011;11313;50.116;8.424;2023-05-07T01:02:01;4.95;;;2.28;;
22289;SDS011;11313;50.116;8.424;2023-05-07T01:04:27;2.80;;;2.05;;
22289;SDS011;11313;50.116;8.424;2023-05-07T01:06:53;4.85;;;2.42;;
22289;SDS011;11313;50.116;8.424;2023-05-07T01:09:21;2.75;;;2.55;;
22289;SDS011;11313;50.116;8.424;2023-05-07T01:11:48;4.80;;;2.65;;
22289;SDS011;11313;50.116;8.424;2023-05-07T01:14:15;4.47;;;2.30;;
22289;SDS011;11313;50.116;8.424;2023-05-07T01:16:41;3.10;;;2.25;;
22289;SDS011;11313;50.116;8.424;2023-05-07T01:19:07;1.90;;;1.50;;
22289;SDS011;11313;50.116;8.424;2023-05-07T01:21:35;2.78;;;1.92;;
22289;SDS011;11313;50.116;8.424;2023-05-07T01:24:03;2.53;;;1.80;;
22289;SDS011;11313;50.116;8.424;2023-05-07T01:26:29;4.72;;;1.40;;
22289;SDS011;11313;50.116;8.424;2023-05-07T01:28:55;3.03;;;1.50;;
22289;SDS011;11313;50.116;8.424;2023-05-07T01:31:21;2.50;;;1.80;;
22289;SDS011;11313;50.116;8.424;2023-05-07T01:33:48;2.50;;;1.95;;
22289;SDS011;11313;50.116;8.424;2023-05-07T01:36:15;2.58;;;1.70;;
22289;SDS011;11313;50.116;8.424;2023-05-07T01:38:43;1.50;;;1.30;;
22289;SDS011;11313;50.116;8.424;2023-05-07T01:41:11;1.77;;;1.23;;
22289;SDS011;11313;50.116;8.424;2023-05-07T01:43:37;1.63;;;1.10;;
22289;SDS011;11313;50.116;8.424;2023-05-07T01:46:03;1.58;;;1.48;;
22289;SDS011;11313;50.116;8.424;2023-05-07T01:48:29;1.77;;;1.38;;
22289;SDS011;11313;50.116;8.424;2023-05-07T01:50:55;1.50;;;1.40;;
22289;SDS011;11313;50.116;8.424;2023-05-07T01:53:21;2.25;;;1.75;;
22289;SDS011;11313;50.116;8.424;2023-05-07T01:55:46;3.05;;;1.27;;
22289;SDS011;11313;50.116;8.424;2023-05-07T01:58:12;2.47;;;1.70;;
22289;SDS011;11313;50.116;8.424;2023-05-07T02:00:37;2.25;;;1.60;;
22289;SDS011;11313;50.116;8.424;2023-05-07T02:03:03;2.17;;;1.50;;
22289;SDS011;11313;50.116;8.424;2023-05-07T02:05:29;1.38;;;1.27;;
22289;SDS011;11313;50.116;8.424;2023-05-07T02:07:54;2.67;;;1.38;;
22289;SDS011;11313;50.116;8.424;2023-05-07T02:10:20;1.38;;;1.20;;
22289;SDS011;11313;50.116;8.424;2023-05-07T02:12:46;1.38;;;1.02;;
22289;SDS011;11313;50.116;8.424;2023-05-07T02:15:11;1.45;;;1.35;;
22289;SDS011;11313;50.116;8.424;2023-05-07T02:17:57;1.38;;;1.27;;
22289;SDS011;11313;50.116;8.424;2023-05-07T02:20:31;1.42;;;1.30;;
22289;SDS011;11313;50.116;8.424;2023-05-07T02:22:56;1.15;;;1.15;;
22289;SDS011;11313;50.116;8.424;2023-05-07T02:25:22;2.35;;;1.20;;
22289;SDS011;11313;50.116;8.424;2023-05-07T02:27:47;1.70;;;1.40;;
22289;SDS011;11313;50.116;8.424;2023-05-07T02:30:13;1.48;;;1.38;;
22289;SDS011;11313;50.116;8.424;2023-05-07T02:32:39;1.33;;;1.23;;
22289;SDS011;11313;50.116;8.424;2023-05-07T02:35:04;1.60;;;1.30;;
22289;SDS011;11313;50.116;8.424;2023-05-07T02:37:33;1.05;;;1.02;;
22289;SDS011;11313;50.116;8.424;2023-05-07T02:39:58;1.20;;;1.10;;
22289;SDS011;11313;50.116;8.424;2023-05-07T02:42:24;1.30;;;1.20;;
22289;SDS011;11313;50.116;8.424;2023-05-07T02:44:49;1.40;;;1.30;;
22289;SDS011;11313;50.116;8.424;2023-05-07T02:47:15;1.48;;;1.23;;
22289;SDS011;11313;50.116;8.424;2023-05-07T02:49:41;2.45;;;1.25;;
22289;SDS011;11313;50.116;8.424;2023-05-07T02:52:06;1.38;;;1.17;;
22289;SDS011;11313;50.116;8.424;2023-05-07T02:54:32;1.30;;;1.20;;
22289;SDS011;11313;50.116;8.424;2023-05-07T02:56:57;1.60;;;1.40;;
22289;SDS011;11313;50.116;8.424;2023-05-07T02:59:23;1.40;;;1.27;;
22289;SDS011;11313;50.116;8.424;2023-05-07T03:01:51;1.77;;;1.13;;
22289;SDS011;11313;50.116;8.424;2023-05-07T03:04:16;1.30;;;1.20;;
22289;SDS011;11313;50.116;8.424;2023-05-07T03:06:42;1.92;;;1.20;;
22289;SDS011;11313;50.116;8.424;2023-05-07T03:09:07;1.55;;;1.40;;
22289;SDS011;11313;50.116;8.424;2023-05-07T03:11:33;1.00;;;0.93;;
22289;SDS011;11313;50.116;8.424;2023-05-07T03:14:00;1.70;;;1.40;;
22289;SDS011;11313;50.116;8.424;2023-05-07T03:16:26;1.88;;;1.27;;
22289;SDS011;11313;50.116;8.424;2023-05-07T03:18:51;1.30;;;1.20;;
22289;SDS011;11313;50.116;8.424;2023-05-07T03:21:17;1.30;;;1.20;;
22289;SDS011;11313;50.116;8.424;2023-05-07T03:23:43;1.25;;;1.15;;
22289;SDS011;11313;50.116;8.424;2023-05-07T03:26:08;1.30;;;1.20;;
22289;SDS011;11313;50.116;8.424;2023-05-07T03:28:34;1.30;;;1.20;;
22289;SDS011;11313;50.116;8.424;2023-05-07T03:30:59;1.92;;;1.20;;
22289;SDS011;11313;50.116;8.424;2023-05-07T03:33:25;1.38;;;1.10;;
22289;SDS011;11313;50.116;8.424;2023-05-07T03:35:52;1.23;;;1.10;;
22289;SDS011;11313;50.116;8.424;2023-05-07T03:38:17;2.03;;;0.95;;
22289;SDS011;11313;50.116;8.424;2023-05-07T03:40:43;1.60;;;1.50;;
22289;SDS011;11313;50.116;8.424;2023-05-07T03:43:08;2.42;;;1.30;;
22289;SDS011;11313;50.116;8.424;2023-05-07T03:45:34;1.50;;;1.40;;
22289;SDS011;11313;50.116;8.424;2023-05-07T03:48:00;1.65;;;1.02;;
22289;SDS011;11313;50.116;8.424;2023-05-07T03:50:25;0.95;;;0.95;;
22289;SDS011;11313;50.116;8.424;2023-05-07T03:52:51;1.42;;;1.30;;
22289;SDS011;11313;50.116;8.424;2023-05-07T03:55:16;1.38;;;1.27;;
22289;SDS011;11313;50.116;8.424;2023-05-07T03:57:42;1.45;;;1.20;;
22289;SDS011;11313;50.116;8.424;2023-05-07T04:00:08;1.60;;;1.50;;
22289;SDS011;11313;50.116;8.424;2023-05-07T04:02:34;1.00;;;0.90;;
22289;SDS011;11313;50.116;8.424;2023-05-07T04:04:59;2.28;;;1.20;;
22289;SDS011;11313;50.116;8.424;2023-05-07T04:07:25;1.73;;;1.15;;
22289;SDS011;11313;50.116;8.424;2023-05-07T04:09:50;1.30;;;1.20;;
22289;SDS011;11313;50.116;8.424;2023-05-07T04:12:16;2.25;;;1.67;;
22289;SDS011;11313;50.116;8.424;2023-05-07T04:14:41;2.25;;;1.50;;
22289;SDS011;11313;50.116;8.424;2023-05-07T04:17:07;1.50;;;1.40;;
22289;SDS011;11313;50.116;8.424;2023-05-07T04:19:34;1.63;;;1.52;;
22289;SDS011;11313;50.116;8.424;2023-05-07T04:22:00;1.50;;;1.40;;
22289;SDS011;11313;50.116;8.424;2023-05-07T04:24:25;1.45;;;1.35;;
22289;SDS011;11313;50.116;8.424;2023-05-07T04:26:51;1.60;;;1.50;;
22289;SDS011;11313;50.116;8.424;2023-05-07T04:29:17;1.40;;;1.30;;
22289;SDS011;11313;50.116;8.424;2023-05-07T04:31:43;1.38;;;1.27;;
22289;SDS011;11313;50.116;8.424;2023-05-07T04:34:09;1.60;;;1.50;;
22289;SDS011;11313;50.116;8.424;2023-05-07T04:36:36;1.73;;;1.50;;
22289;SDS011;11313;50.116;8.424;2023-05-07T04:39:03;1.60;;;1.50;;
22289;SDS011;11313;50.116;8.424;2023-05-07T04:41:28;1.75;;;1.65;;
22289;SDS011;11313;50.116;8.424;2023-05-07T04:43:54;1.88;;;1.77;;
22289;SDS011;11313;50.116;8.424;2023-05-07T04:46:20;1.35;;;1.25;;
22289;SDS011;11313;50.116;8.424;2023-05-07T04:48:45;2.05;;;1.90;;
22289;SDS011;11313;50.116;8.424;2023-05-07T04:51:11;1.92;;;1.77;;
22289;SDS011;11313;50.116;8.424;2023-05-07T04:53:37;1.60;;;1.50;;
22289;SDS011;11313;50.116;8.424;2023-05-07T04:56:02;1.70;;;1.27;;
22289;SDS011;11313;50.116;8.424;2023-05-07T04:58:28;2.10;;;1.70;;
22289;SDS011;11313;50.116;8.424;2023-05-07T05:00:56;1.52;;;1.42;;
22289;SDS011;11313;50.116;8.424;2023-05-07T05:03:22;1.30;;;1.20;;
22289;SDS011;11313;50.116;8.424;2023-05-07T05:05:49;1.35;;;1.20;;
22289;SDS011;11313;50.116;8.424;2023-05-07T05:08:16;1.30;;;1.20;;
22289;SDS011;11313;50.116;8.424;2023-05-07T05:10:42;1.58;;;1.48;;
22289;SDS011;11313;50.116;8.424;2023-05-07T05:13:08;1.13;;;1.10;;
22289;SDS011;11313;50.116;8.424;2023-05-07T05:15:34;1.33;;;1.23;;
22289;SDS011;11313;50.116;8.424;2023-05-07T05:18:00;1.55;;;1.45;;
22289;SDS011;11313;50.116;8.424;2023-05-07T05:20:26;2.97;;;1.55;;
22289;SDS011;11313;50.116;8.424;2023-05-07T05:22:51;2.38;;;1.60;;
22289;SDS011;11313;50.116;8.424;2023-05-07T05:25:17;1.90;;;1.80;;
22289;SDS011;11313;50.116;8.424;2023-05-07T05:27:42;1.70;;;1.60;;
22289;SDS011;11313;50.116;8.424;2023-05-07T05:30:08;2.92;;;1.35;;
22289;SDS011;11313;50.116;8.424;2023-05-07T05:32:34;2.40;;;1.60;;
22289;SDS011;11313;50.116;8.424;2023-05-07T05:34:59;1.67;;;1.30;;
22289;SDS011;11313;50.116;8.424;2023-05-07T05:37:25;1.73;;;1.63;;
22289;SDS011;11313;50.116;8.424;2023-05-07T05:39:52;1.50;;;1.40;;
22289;SDS011;11313;50.116;8.424;2023-05-07T05:42:19;1.27;;;1.17;;
22289;SDS011;11313;50.116;8.424;2023-05-07T05:44:45;1.45;;;1.35;;
22289;SDS011;11313;50.116;8.424;2023-05-07T05:47:10;2.08;;;1.45;;
22289;SDS011;11313;50.116;8.424;2023-05-07T05:49:36;1.73;;;1.30;;
22289;SDS011;11313;50.116;8.424;2023-05-07T05:52:01;1.20;;;1.10;;
22289;SDS011;11313;50.116;8.424;2023-05-07T05:54:27;0.80;;;0.80;;
22289;SDS011;11313;50.116;8.424;2023-05-07T05:56:52;3.08;;;1.23;;
22289;SDS011;11313;50.116;8.424;2023-05-07T05:59:18;1.30;;;1.05;;
22289;SDS011;11313;50.116;8.424;2023-05-07T06:01:43;1.00;;;0.90;;
22289;SDS011;11313;50.116;8.424;2023-05-07T06:04:09;1.05;;;0.93;;
22289;SDS011;11313;50.116;8.424;2023-05-07T06:06:34;2.05;;;1.00;;
22289;SDS011;11313;50.116;8.424;2023-05-07T06:09:00;1.10;;;1.00;;
22289;SDS011;11313;50.116;8.424;2023-05-07T06:11:26;0.93;;;0.80;;
22289;SDS011;11313;50.116;8.424;2023-05-07T06:13:51;2.55;;;1.00;;
22289;SDS011;11313;50.116;8.424;2023-05-07T06:16:17;1.05;;;1.00;;
22289;SDS011;11313;50.116;8.424;2023-05-07T06:18:42;1.23;;;0.70;;
22289;SDS011;11313;50.116;8.424;2023-05-07T06:21:07;1.08;;;0.98;;
22289;SDS011;11313;50.116;8.424;2023-05-07T06:23:34;1.52;;;1.05;;
22289;SDS011;11313;50.116;8.424;2023-05-07T06:26:00;2.00;;;1.30;;
22289;SDS011;11313;50.116;8.424;2023-05-07T06:28:25;1.95;;;1.00;;
22289;SDS011;11313;50.116;8.424;2023-05-07T06:30:52;1.33;;;1.00;;
22289;SDS011;11313;50.116;8.424;2023-05-07T06:33:17;1.45;;;1.00;;
22289;SDS011;11313;50.116;8.424;2023-05-07T06:35:44;1.77;;;1.13;;
22289;SDS011;11313;50.116;8.424;2023-05-07T06:38:10;1.10;;;1.00;;
22289;SDS011;11313;50.116;8.424;2023-05-07T06:40:37;2.25;;;1.05;;
22289;SDS011;11313;50.116;8.424;2023-05-07T06:43:02;1.35;;;1.10;;
22289;SDS011;11313;50.116;8.424;2023-05-07T06:45:28;2.05;;;1.20;;
22289;SDS011;11313;50.116;8.424;2023-05-07T06:47:53;2.65;;;1.15;;
22289;SDS011;11313;50.116;8.424;2023-05-07T06:50:19;2.20;;;1.30;;
22289;SDS011;11313;50.116;8.424;2023-05-07T06:52:44;2.88;;;1.10;;
22289;SDS011;11313;50.116;8.424;2023-05-07T06:55:10;4.63;;;1.80;;
22289;SDS011;11313;50.116;8.424;2023-05-07T06:57:36;3.00;;;1.35;;
22289;SDS011;11313;50.116;8.424;2023-05-07T07:00:03;2.20;;;1.70;;
22289;SDS011;11313;50.116;8.424;2023-05-07T07:02:31;1.45;;;1.35;;
22289;SDS011;11313;50.116;8.424;2023-05-07T07:04:57;4.40;;;1.42;;
22289;SDS011;11313;50.116;8.424;2023-05-07T07:07:22;2.75;;;1.50;;
22289;SDS011;11313;50.116;8.424;2023-05-07T07:09:49;2.40;;;1.48;;
22289;SDS011;11313;50.116;8.424;2023-05-07T07:12:14;3.15;;;1.73;;
22289;SDS011;11313;50.116;8.424;2023-05-07T07:14:40;4.00;;;1.58;;
22289;SDS011;11313;50.116;8.424;2023-05-07T07:17:05;6.35;;;1.60;;
22289;SDS011;11313;50.116;8.424;2023-05-07T07:19:31;2.28;;;1.70;;
22289;SDS011;11313;50.116;8.424;2023-05-07T07:21:56;7.13;;;2.25;;
22289;SDS011;11313;50.116;8.424;2023-05-07T07:24:22;17.38;;;6.30;;
22289;SDS011;11313;50.116;8.424;2023-05-07T07:26:47;21.40;;;5.95;;
22289;SDS011;11313;50.116;8.424;2023-05-07T07:29:13;25.90;;;8.13;;
22289;SDS011;11313;50.116;8.424;2023-05-07T07:31:38;21.02;;;7.25;;
22289;SDS011;11313;50.116;8.424;2023-05-07T07:34:04;19.00;;;6.93;;
22289;SDS011;11313;50.116;8.424;2023-05-07T07:36:29;22.48;;;6.60;;
22289;SDS011;11313;50.116;8.424;2023-05-07T07:38:55;17.75;;;7.00;;
22289;SDS011;11313;50.116;8.424;2023-05-07T07:41:20;18.63;;;6.97;;
22289;SDS011;11313;50.116;8.424;2023-05-07T07:43:46;19.77;;;7.18;;
22289;SDS011;11313;50.116;8.424;2023-05-07T07:46:12;19.85;;;7.13;;
22289;SDS011;11313;50.116;8.424;2023-05-07T07:48:37;24.92;;;7.30;;
22289;SDS011;11313;50.116;8.424;2023-05-07T07:51:03;20.73;;;7.68;;
22289;SDS011;11313;50.116;8.424;2023-05-07T07:53:29;25.27;;;8.98;;
22289;SDS011;11313;50.116;8.424;2023-05-07T07:55:55;20.58;;;7.90;;
22289;SDS011;11313;50.116;8.424;2023-05-07T07:58:21;21.23;;;8.43;;
22289;SDS011;11313;50.116;8.424;2023-05-07T08:00:47;19.73;;;7.72;;
22289;SDS011;11313;50.116;8.424;2023-05-07T08:03:12;24.92;;;8.50;;
22289;SDS011;11313;50.116;8.424;2023-05-07T08:05:39;22.63;;;9.10;;
22289;SDS011;11313;50.116;8.424;2023-05-07T08:08:04;21.00;;;8.43;;
22289;SDS011;11313;50.116;8.424;2023-05-07T08:10:30;22.33;;;8.32;;
22289;SDS011;11313;50.116;8.424;2023-05-07T08:12:59;19.17;;;7.32;;
22289;SDS011;11313;50.116;8.424;2023-05-07T08:15:25;20.60;;;7.72;;
22289;SDS011;11313;50.116;8.424;2023-05-07T08:17:51;20.13;;;8.35;;
22289;SDS011;11313;50.116;8.424;2023-05-07T08:20:16;24.10;;;8.50;;
22289;SDS011;11313;50.116;8.424;2023-05-07T08:22:42;22.52;;;8.52;;
22289;SDS011;11313;50.116;8.424;2023-05-07T08:25:07;20.73;;;8.30;;
22289;SDS011;11313;50.116;8.424;2023-05-07T08:27:33;18.83;;;7.80;;
22289;SDS011;11313;50.116;8.424;2023-05-07T08:29:58;20.45;;;7.93;;
22289;SDS011;11313;50.116;8.424;2023-05-07T08:32:24;16.95;;;7.82;;
22289;SDS011;11313;50.116;8.424;2023-05-07T08:34:49;19.33;;;7.72;;
22289;SDS011;11313;50.116;8.424;2023-05-07T08:37:16;18.48;;;8.00;;
22289;SDS011;11313;50.116;8.424;2023-05-07T08:39:41;19.55;;;8.15;;
22289;SDS011;11313;50.116;8.424;2023-05-07T08:42:07;19.02;;;7.55;;
22289;SDS011;11313;50.116;8.424;2023-05-07T08:44:36;16.60;;;7.40;;
22289;SDS011;11313;50.116;8.424;2023-05-07T08:47:06;16.88;;;7.75;;
22289;SDS011;11313;50.116;8.424;2023-05-07T08:49:31;18.98;;;7.82;;
22289;SDS011;11313;50.116;8.424;2023-05-07T08:51:58;154.00;;;32.78;;
22289;SDS011;11313;50.116;8.424;2023-05-07T08:54:24;205.73;;;49.05;;
22289;SDS011;11313;50.116;8.424;2023-05-07T08:56:50;169.05;;;41.90;;
22289;SDS011;11313;50.116;8.424;2023-05-07T08:59:16;148.18;;;37.60;;
22289;SDS011;11313;50.116;8.424;2023-05-07T09:01:42;152.55;;;38.83;;
22289;SDS011;11313;50.116;8.424;2023-05-07T09:04:07;147.48;;;39.25;;
22289;SDS011;11313;50.116;8.424;2023-05-07T09:06:34;153.85;;;44.15;;
22289;SDS011;11313;50.116;8.424;2023-05-07T09:09:00;147.02;;;42.28;;
22289;SDS011;11313;50.116;8.424;2023-05-07T09:11:26;144.27;;;42.35;;
22289;SDS011;11313;50.116;8.424;2023-05-07T09:13:55;144.00;;;42.15;;
22289;SDS011;11313;50.116;8.424;2023-05-07T09:16:23;132.50;;;42.03;;
22289;SDS011;11313;50.116;8.424;2023-05-07T09:18:50;133.63;;;41.03;;
22289;SDS011;11313;50.116;8.424;2023-05-07T09:21:17;122.45;;;39.85;;
22289;SDS011;11313;50.116;8.424;2023-05-07T09:23:44;120.97;;;39.45;;
22289;SDS011;11313;50.116;8.424;2023-05-07T09:26:09;126.72;;;39.55;;
22289;SDS011;11313;50.116;8.424;2023-05-07T09:28:40;113.20;;;39.05;;
22289;SDS011;11313;50.116;8.424;2023-05-07T09:31:07;118.55;;;39.63;;
22289;SDS011;11313;50.116;8.424;2023-05-07T09:33:33;108.03;;;39.05;;
22289;SDS011;11313;50.116;8.424;2023-05-07T09:36:01;103.25;;;37.40;;
22289;SDS011;11313;50.116;8.424;2023-05-07T09:38:31;104.65;;;36.95;;
22289;SDS011;11313;50.116;8.424;2023-05-07T09:41:01;105.38;;;36.53;;
22289;SDS011;11313;50.116;8.424;2023-05-07T09:43:31;102.55;;;34.63;;
22289;SDS011;11313;50.116;8.424;2023-05-07T09:45:58;99.72;;;34.63;;
22289;SDS011;11313;50.116;8.424;2023-05-07T09:48:26;101.07;;;34.33;;
22289;SDS011;11313;50.116;8.424;2023-05-07T09:50:54;91.80;;;34.22;;
22289;SDS011;11313;50.116;8.424;2023-05-07T09:53:23;90.63;;;32.80;;
22289;SDS011;11313;50.116;8.424;2023-05-07T09:55:49;98.22;;;34.38;;
22289;SDS011;11313;50.116;8.424;2023-05-07T09:58:16;88.00;;;32.33;;
22289;SDS011;11313;50.116;8.424;2023-05-07T10:00:43;85.82;;;31.70;;
22289;SDS011;11313;50.116;8.424;2023-05-07T10:03:10;89.68;;;31.38;;
22289;SDS011;11313;50.116;8.424;2023-05-07T10:05:37;80.63;;;30.02;;
22289;SDS011;11313;50.116;8.424;2023-05-07T10:08:03;81.80;;;30.08;;
22289;SDS011;11313;50.116;8.424;2023-05-07T10:10:30;75.18;;;29.45;;
22289;SDS011;11313;50.116;8.424;2023-05-07T10:12:57;73.85;;;29.65;;
22289;SDS011;11313;50.116;8.424;2023-05-07T10:15:23;76.90;;;30.45;;
22289;SDS011;11313;50.116;8.424;2023-05-07T10:17:50;75.45;;;28.02;;
22289;SDS011;11313;50.116;8.424;2023-05-07T10:20:18;75.90;;;28.05;;
22289;SDS011;11313;50.116;8.424;2023-05-07T10:22:44;62.63;;;25.98;;
22289;SDS011;11313;50.116;8.424;2023-05-07T10:25:14;69.83;;;27.40;;
22289;SDS011;11313;50.116;8.424;2023-05-07T10:27:46;66.90;;;25.92;;
22289;SDS011;11313;50.116;8.424;2023-05-07T10:32:51;70.38;;;25.35;;
22289;SDS011;11313;50.116;8.424;2023-05-07T10:35:20;61.92;;;24.25;;
22289;SDS011;11313;50.116;8.424;2023-05-07T10:37:51;54.50;;;23.42;;
22289;SDS011;11313;50.116;8.424;2023-05-07T10:40:17;60.63;;;22.95;;
22289;SDS011;11313;50.116;8.424;2023-05-07T10:42:57;58.20;;;22.75;;
22289;SDS011;11313;50.116;8.424;2023-05-07T10:45:25;53.90;;;22.40;;
22289;SDS011;11313;50.116;8.424;2023-05-07T10:48:06;52.25;;;21.85;;
22289;SDS011;11313;50.116;8.424;2023-05-07T10:50:33;52.80;;;21.00;;
22289;SDS011;11313;50.116;8.424;2023-05-07T11:00:55;47.03;;;20.10;;
22289;SDS011;11313;50.116;8.424;2023-05-07T11:03:22;47.10;;;18.98;;
22289;SDS011;11313;50.116;8.424;2023-05-07T11:05:48;47.10;;;19.63;;
22289;SDS011;11313;50.116;8.424;2023-05-07T11:12:03;43.60;;;18.08;;
22289;SDS011;11313;50.116;8.424;2023-05-07T11:14:42;44.03;;;17.80;;
22289;SDS011;11313;50.116;8.424;2023-05-07T11:17:10;37.10;;;17.10;;
22289;SDS011;11313;50.116;8.424;2023-05-07T11:19:49;39.90;;;16.92;;
22289;SDS011;11313;50.116;8.424;2023-05-07T11:24:57;36.75;;;16.50;;
22289;SDS011;11313;50.116;8.424;2023-05-07T11:27:25;39.08;;;16.50;;
22289;SDS011;11313;50.116;8.424;2023-05-07T11:29:51;37.80;;;16.40;;
22289;SDS011;11313;50.116;8.424;2023-05-07T11:32:23;39.75;;;15.90;;
22289;SDS011;11313;50.116;8.424;2023-05-07T11:34:52;36.45;;;15.27;;
22289;SDS011;11313;50.116;8.424;2023-05-07T11:37:18;29.40;;;14.27;;
22289;SDS011;11313;50.116;8.424;2023-05-07T11:39:44;32.83;;;15.48;;
22289;SDS011;11313;50.116;8.424;2023-05-07T11:42:27;34.40;;;15.05;;
22289;SDS011;11313;50.116;8.424;2023-05-07T11:44:57;35.45;;;14.60;;
22289;SDS011;11313;50.116;8.424;2023-05-07T11:47:23;33.05;;;14.52;;
22289;SDS011;11313;50.116;8.424;2023-05-07T11:49:51;35.63;;;14.70;;
22289;SDS011;11313;50.116;8.424;2023-05-07T11:52:18;30.58;;;13.48;;
22289;SDS011;11313;50.116;8.424;2023-05-07T11:54:52;33.72;;;14.90;;
22289;SDS011;11313;50.116;8.424;2023-05-07T11:57:21;30.55;;;13.88;;
22289;SDS011;11313;50.116;8.424;2023-05-07T11:59:47;30.73;;;13.13;;
22289;SDS011;11313;50.116;8.424;2023-05-07T12:02:17;31.97;;;13.47;;
22289;SDS011;11313;50.116;8.424;2023-05-07T12:04:43;30.27;;;13.38;;
22289;SDS011;11313;50.116;8.424;2023-05-07T12:07:15;28.67;;;13.00;;
22289;SDS011;11313;50.116;8.424;2023-05-07T12:09:41;24.85;;;12.20;;
22289;SDS011;11313;50.116;8.424;2023-05-07T12:12:07;28.00;;;12.45;;
22289;SDS011;11313;50.116;8.424;2023-05-07T12:14:37;26.80;;;11.75;;
22289;SDS011;11313;50.116;8.424;2023-05-07T12:17:07;27.15;;;12.05;;
22289;SDS011;11313;50.116;8.424;2023-05-07T12:19:33;28.88;;;12.23;;
22289;SDS011;11313;50.116;8.424;2023-05-07T12:22:00;26.35;;;11.63;;
22289;SDS011;11313;50.116;8.424;2023-05-07T12:24:27;22.17;;;11.75;;
22289;SDS011;11313;50.116;8.424;2023-05-07T12:26:53;25.00;;;11.48;;
22289;SDS011;11313;50.116;8.424;2023-05-07T12:29:22;24.45;;;10.60;;
22289;SDS011;11313;50.116;8.424;2023-05-07T12:31:51;23.95;;;10.55;;
22289;SDS011;11313;50.116;8.424;2023-05-07T12:34:17;21.23;;;10.77;;
22289;SDS011;11313;50.116;8.424;2023-05-07T12:36:43;26.88;;;11.10;;
22289;SDS011;11313;50.116;8.424;2023-05-07T12:39:08;22.00;;;10.35;;
22289;SDS011;11313;50.116;8.424;2023-05-07T12:44:21;20.63;;;10.38;;
22289;SDS011;11313;50.116;8.424;2023-05-07T12:46:50;21.05;;;10.07;;
22289;SDS011;11313;50.116;8.424;2023-05-07T12:49:16;19.95;;;9.93;;
22289;SDS011;11313;50.116;8.424;2023-05-07T12:51:46;21.38;;;10.27;;
22289;SDS011;11313;50.116;8.424;2023-05-07T12:54:13;16.65;;;9.13;;
22289;SDS011;11313;50.116;8.424;2023-05-07T12:56:39;20.10;;;10.57;;
22289;SDS011;11313;50.116;8.424;2023-05-07T12:59:05;21.00;;;10.32;;
22289;SDS011;11313;50.116;8.424;2023-05-07T13:01:30;18.30;;;9.30;;
22289;SDS011;11313;50.116;8.424;2023-05-07T13:04:00;24.00;;;10.48;;
22289;SDS011;11313;50.116;8.424;2023-05-07T13:06:27;21.20;;;9.68;;
22289;SDS011;11313;50.116;8.424;2023-05-07T13:08:53;22.98;;;10.68;;
22289;SDS011;11313;50.116;8.424;2023-05-07T13:11:18;21.35;;;10.40;;
22289;SDS011;11313;50.116;8.424;2023-05-07T13:13:44;19.23;;;10.25;;
22289;SDS011;11313;50.116;8.424;2023-05-07T13:16:10;24.38;;;10.13;;
22289;SDS011;11313;50.116;8.424;2023-05-07T13:18:37;20.75;;;10.15;;
22289;SDS011;11313;50.116;8.424;2023-05-07T13:21:03;19.95;;;9.25;;
22289;SDS011;11313;50.116;8.424;2023-05-07T13:23:29;19.77;;;9.70;;
22289;SDS011;11313;50.116;8.424;2023-05-07T13:25:55;21.58;;;9.40;;
22289;SDS011;11313;50.116;8.424;2023-05-07T13:28:22;21.58;;;9.65;;
22289;SDS011;11313;50.116;8.424;2023-05-07T13:30:50;20.80;;;9.55;;
22289;SDS011;11313;50.116;8.424;2023-05-07T13:33:16;21.20;;;9.65;;
22289;SDS011;11313;50.116;8.424;2023-05-07T13:35:42;22.88;;;9.88;;
22289;SDS011;11313;50.116;8.424;2023-05-07T13:38:08;17.63;;;8.73;;
22289;SDS011;11313;50.116;8.424;2023-05-07T13:40:34;17.92;;;9.27;;
22289;SDS011;11313;50.116;8.424;2023-05-07T13:43:00;19.35;;;9.68;;
22289;SDS011;11313;50.116;8.424;2023-05-07T13:45:35;17.65;;;9.25;;
22289;SDS011;11313;50.116;8.424;2023-05-07T13:48:01;21.00;;;9.45;;
22289;SDS011;11313;50.116;8.424;2023-05-07T13:50:26;15.25;;;8.07;;
22289;SDS011;11313;50.116;8.424;2023-05-07T13:52:54;18.17;;;8.48;;
22289;SDS011;11313;50.116;8.424;2023-05-07T13:55:20;19.02;;;8.77;;
22289;SDS011;11313;50.116;8.424;2023-05-07T13:57:46;16.98;;;8.75;;
22289;SDS011;11313;50.116;8.424;2023-05-07T14:00:12;19.27;;;9.02;;
22289;SDS011;11313;50.116;8.424;2023-05-07T14:02:39;17.25;;;8.27;;
22289;SDS011;11313;50.116;8.424;2023-05-07T14:05:05;15.50;;;8.38;;
22289;SDS011;11313;50.116;8.424;2023-05-07T14:07:31;14.85;;;7.60;;
22289;SDS011;11313;50.116;8.424;2023-05-07T14:09:57;15.93;;;8.23;;
22289;SDS011;11313;50.116;8.424;2023-05-07T14:12:23;15.50;;;7.68;;
22289;SDS011;11313;50.116;8.424;2023-05-07T14:14:48;16.85;;;8.63;;
22289;SDS011;11313;50.116;8.424;2023-05-07T14:17:15;14.68;;;7.82;;
22289;SDS011;11313;50.116;8.424;2023-05-07T14:19:41;13.02;;;7.38;;
22289;SDS011;11313;50.116;8.424;2023-05-07T14:22:07;11.90;;;7.13;;
22289;SDS011;11313;50.116;8.424;2023-05-07T14:24:33;13.82;;;7.25;;
22289;SDS011;11313;50.116;8.424;2023-05-07T14:26:58;18.50;;;8.27;;
22289;SDS011;11313;50.116;8.424;2023-05-07T14:29:24;13.60;;;7.30;;
22289;SDS011;11313;50.116;8.424;2023-05-07T14:31:50;14.98;;;7.40;;
22289;SDS011;11313;50.116;8.424;2023-05-07T14:34:15;14.55;;;7.82;;
22289;SDS011;11313;50.116;8.424;2023-05-07T14:36:41;14.40;;;6.88;;
22289;SDS011;11313;50.116;8.424;2023-05-07T14:39:06;16.02;;;7.63;;
22289;SDS011;11313;50.116;8.424;2023-05-07T14:41:32;10.68;;;6.60;;
22289;SDS011;11313;50.116;8.424;2023-05-07T14:43:58;12.30;;;6.85;;
22289;SDS011;11313;50.116;8.424;2023-05-07T14:46:23;13.30;;;7.20;;
22289;SDS011;11313;50.116;8.424;2023-05-07T14:48:49;13.27;;;7.00;;
22289;SDS011;11313;50.116;8.424;2023-05-07T14:51:15;13.30;;;7.15;;